Time;durP1;ratioP1;P1;durP2;ratioP2;P2;SDS_P1;SDS_P2;PMS_P1;PMS_P2;Temp;Humidity;BMP_temperature;BMP_pressure;BME280_temperature;BME280_humidity;BME280_pressure;Samples;Min_cycle;Max_cycle;Signal;HPM_P1;HPM_P2
2022/08/09 00:00:48;;;;;;;8.13;4.80;;;12.70;99.90;;;;;;4822079;29;20033;-51
2022/08/09 00:03:13;;;;;;;4.82;4.43;;;12.70;99.90;;;;;;4821591;29;20030;-51
2022/08/09 00:05:39;;;;;;;8.10;4.30;;;12.70;99.90;;;;;;4821915;29;20033;-54
2022/08/09 00:08:06;;;;;;;11.77;4.60;;;12.60;99.90;;;;;;4821892;29;20482;-52
2022/08/09 00:10:32;;;;;;;4.85;4.45;;;12.60;99.90;;;;;;4821978;29;20030;-54
2022/08/09 00:12:57;;;;;;;11.48;4.20;;;12.60;99.90;;;;;;4821594;29;20103;-53
2022/08/09 00:15:23;;;;;;;5.40;4.90;;;12.60;99.90;;;;;;4821778;29;20038;-52
2022/08/09 00:17:49;;;;;;;6.15;4.32;;;12.50;99.90;;;;;;4821701;29;20037;-51
2022/08/09 00:20:14;;;;;;;4.45;3.92;;;12.50;99.90;;;;;;4821684;29;20483;-52
2022/08/09 00:22:40;;;;;;;11.23;4.72;;;12.50;99.90;;;;;;4821835;29;20030;-51
2022/08/09 00:25:06;;;;;;;8.13;4.38;;;12.40;99.90;;;;;;4821587;29;20030;-52
2022/08/09 00:27:32;;;;;;;8.88;4.53;;;12.40;99.90;;;;;;4821706;29;20030;-53
2022/08/09 00:29:57;;;;;;;7.28;4.30;;;12.30;99.90;;;;;;4821282;29;20030;-52
2022/08/09 00:32:23;;;;;;;11.65;5.32;;;12.30;99.90;;;;;;4821535;29;20037;-51
2022/08/09 00:34:49;;;;;;;8.18;4.95;;;12.30;99.90;;;;;;4821388;29;20411;-52
2022/08/09 00:37:14;;;;;;;9.43;4.38;;;12.20;99.90;;;;;;4821573;29;20086;-53
2022/08/09 00:39:40;;;;;;;8.35;4.68;;;12.20;99.90;;;;;;4820430;29;20034;-51
2022/08/09 00:42:06;;;;;;;5.45;4.50;;;12.20;99.90;;;;;;4820691;29;20042;-51
2022/08/09 00:44:32;;;;;;;6.88;4.70;;;12.20;99.90;;;;;;4819961;29;20026;-51
2022/08/09 00:46:57;;;;;;;11.32;5.10;;;12.10;99.90;;;;;;4820167;29;20026;-51
2022/08/09 00:49:23;;;;;;;6.40;4.57;;;12.10;99.90;;;;;;4821624;29;20051;-51
2022/08/09 00:51:49;;;;;;;5.60;4.10;;;12.20;99.90;;;;;;4821281;29;20034;-51
2022/08/09 00:54:15;;;;;;;10.93;6.55;;;12.20;99.90;;;;;;4819945;29;20034;-51
2022/08/09 00:56:41;;;;;;;11.30;4.43;;;12.10;99.90;;;;;;4821402;29;20038;-52
2022/08/09 00:59:06;;;;;;;9.30;4.85;;;12.10;99.90;;;;;;4821288;29;20029;-51
2022/08/09 01:01:39;;;;;;;4.78;4.03;;;12.00;99.90;;;;;;4821475;29;20037;-52
2022/08/09 01:04:19;;;;;;;6.53;4.30;;;12.00;99.90;;;;;;4821270;29;20027;-52
2022/08/09 01:07:06;;;;;;;6.50;4.28;;;12.00;99.90;;;;;;4821481;29;20178;-52
2022/08/09 01:09:52;;;;;;;7.10;4.78;;;12.00;99.90;;;;;;4821077;29;20394;-53
2022/08/09 01:12:50;;;;;;;10.55;4.80;;;12.00;99.90;;;;;;4821271;29;20086;-51
2022/08/09 01:15:20;;;;;;;9.55;4.78;;;11.90;99.90;;;;;;4820902;29;20111;-51
2022/08/09 01:18:00;;;;;;;14.23;4.47;;;11.80;99.90;;;;;;4821232;29;20065;-51
2022/08/09 01:21:07;;;;;;;4.82;4.32;;;11.90;99.90;;;;;;4821278;29;20039;-52
2022/08/09 01:24:03;;;;;;;6.60;4.88;;;11.80;99.90;;;;;;4821024;29;20512;-52
2022/08/09 01:26:56;;;;;;;9.73;4.68;;;11.80;99.90;;;;;;4820986;29;20345;-54
2022/08/09 01:29:38;;;;;;;6.78;4.40;;;11.80;99.90;;;;;;4821183;29;20025;-52
2022/08/09 01:32:06;;;;;;;8.02;4.88;;;11.70;99.90;;;;;;4820946;29;20022;-52
2022/08/09 01:34:34;;;;;;;10.25;5.00;;;11.70;99.90;;;;;;4821011;29;20026;-52
2022/08/09 01:37:02;;;;;;;11.82;4.72;;;11.60;99.90;;;;;;4820871;29;20471;-51
2022/08/09 01:39:33;;;;;;;11.45;4.80;;;11.60;99.90;;;;;;4820840;29;20039;-51
2022/08/09 01:42:01;;;;;;;6.15;4.20;;;11.60;99.90;;;;;;4820971;29;20126;-51
2022/08/09 01:44:28;;;;;;;5.97;4.55;;;11.60;99.90;;;;;;4820610;29;20034;-51
2022/08/09 01:46:56;;;;;;;8.05;4.68;;;11.60;99.90;;;;;;4820853;29;20054;-52
2022/08/09 01:49:24;;;;;;;8.02;4.93;;;11.60;99.90;;;;;;4820802;29;20018;-51
2022/08/09 01:52:02;;;;;;;9.23;5.15;;;11.60;99.90;;;;;;4820943;29;20086;-54
2022/08/09 01:54:44;;;;;;;5.85;4.80;;;11.60;99.90;;;;;;4822307;29;20554;-52
2022/08/09 01:57:26;;;;;;;6.55;5.05;;;11.50;99.90;;;;;;4822493;29;20050;-51
2022/08/09 01:59:54;;;;;;;10.35;4.85;;;11.50;99.90;;;;;;4823714;29;20113;-51
2022/08/09 02:02:26;;;;;;;6.07;4.78;;;11.50;99.90;;;;;;4824020;29;20058;-51
2022/08/09 02:04:54;;;;;;;6.85;4.75;;;11.50;99.90;;;;;;4823726;29;20033;-52
2022/08/09 02:07:23;;;;;;;5.30;4.45;;;11.50;99.90;;;;;;4823752;29;20031;-53
2022/08/09 02:09:56;;;;;;;9.98;4.80;;;11.50;99.90;;;;;;4823781;29;20037;-50
2022/08/09 02:12:23;;;;;;;5.25;4.68;;;11.40;99.90;;;;;;4823549;29;20026;-51
2022/08/09 02:14:53;;;;;;;8.13;5.43;;;11.30;99.90;;;;;;4821961;29;20420;-52
2022/08/09 02:17:22;;;;;;;5.15;4.65;;;11.30;99.90;;;;;;4823678;29;20042;-55
2022/08/09 02:19:49;;;;;;;6.18;4.72;;;11.30;99.90;;;;;;4823523;29;20030;-51
2022/08/09 02:22:25;;;;;;;6.05;5.22;;;11.20;99.90;;;;;;4823512;29;20053;-52
2022/08/09 02:24:55;;;;;;;5.65;4.80;;;11.20;99.90;;;;;;4823407;29;20033;-54
2022/08/09 02:27:24;;;;;;;6.68;5.47;;;11.30;99.90;;;;;;4823430;29;20098;-52
2022/08/09 02:29:52;;;;;;;7.00;4.50;;;11.30;99.90;;;;;;4823399;29;20027;-54
2022/08/09 02:32:21;;;;;;;8.70;4.70;;;11.30;99.90;;;;;;4823112;29;20031;-53
2022/08/09 02:34:53;;;;;;;8.40;4.75;;;11.20;99.90;;;;;;4823050;29;20439;-52
2022/08/09 02:37:21;;;;;;;5.80;4.63;;;11.30;99.90;;;;;;4822156;29;20501;-55
2022/08/09 02:39:53;;;;;;;11.48;5.40;;;11.20;99.90;;;;;;4823256;29;20109;-52
2022/08/09 02:42:24;;;;;;;6.80;4.80;;;11.10;99.90;;;;;;4823366;29;20037;-52
2022/08/09 02:44:55;;;;;;;12.50;5.10;;;11.10;99.90;;;;;;4823549;29;20030;-51
2022/08/09 02:47:22;;;;;;;8.40;6.22;;;11.10;99.90;;;;;;4822869;29;20098;-52
2022/08/09 02:50:02;;;;;;;12.25;5.18;;;11.10;99.90;;;;;;4823158;29;20022;-52
2022/08/09 02:52:35;;;;;;;7.80;4.63;;;10.90;99.90;;;;;;4823029;29;20551;-51
2022/08/09 02:55:03;;;;;;;5.28;4.60;;;11.00;99.90;;;;;;4821746;29;20046;-51
2022/08/09 02:57:30;;;;;;;7.78;5.13;;;11.00;99.90;;;;;;4822948;29;20114;-52
2022/08/09 02:59:58;;;;;;;14.82;5.47;;;11.00;99.90;;;;;;4822836;29;20539;-53
2022/08/09 03:02:24;;;;;;;11.50;4.90;;;10.90;99.90;;;;;;4822745;29;20038;-52
2022/08/09 03:04:51;;;;;;;7.07;5.28;;;11.00;99.90;;;;;;4822561;29;20042;-51
2022/08/09 03:07:17;;;;;;;10.30;4.90;;;11.00;99.90;;;;;;4822301;29;20390;-51
2022/08/09 03:09:44;;;;;;;6.82;5.32;;;10.90;99.90;;;;;;4822750;29;20053;-51
2022/08/09 03:12:11;;;;;;;6.25;5.43;;;11.00;99.90;;;;;;4822650;29;20435;-52
2022/08/09 03:14:40;;;;;;;7.90;7.10;;;10.90;99.90;;;;;;4822558;29;20046;-50
2022/08/09 03:17:07;;;;;;;9.80;6.32;;;10.90;99.90;;;;;;4822349;29;20037;-52
2022/08/09 03:19:34;;;;;;;11.75;5.25;;;10.90;99.90;;;;;;4822847;29;20030;-53
2022/08/09 03:22:00;;;;;;;5.70;5.20;;;10.90;99.90;;;;;;4822565;29;20049;-51
2022/08/09 03:24:26;;;;;;;12.77;4.90;;;11.00;99.90;;;;;;4822530;29;20490;-51
2022/08/09 03:26:52;;;;;;;7.20;5.75;;;11.00;99.90;;;;;;4822549;29;20022;-54
2022/08/09 03:29:19;;;;;;;14.15;5.75;;;10.90;99.90;;;;;;4822528;29;20064;-52
2022/08/09 03:31:45;;;;;;;9.15;5.10;;;10.90;99.90;;;;;;4822390;29;20278;-55
2022/08/09 03:34:11;;;;;;;11.10;5.45;;;10.80;99.90;;;;;;4822332;29;20233;-52
2022/08/09 03:36:37;;;;;;;8.27;5.03;;;10.90;99.90;;;;;;4822546;29;20030;-52
2022/08/09 03:39:03;;;;;;;5.43;4.80;;;10.80;99.90;;;;;;4822169;29;20083;-51
2022/08/09 03:41:29;;;;;;;14.80;4.72;;;10.80;99.90;;;;;;4822383;29;20118;-51
2022/08/09 03:43:55;;;;;;;11.70;5.63;;;10.80;99.90;;;;;;4822131;29;20109;-52
2022/08/09 03:46:21;;;;;;;11.05;5.45;;;10.80;99.90;;;;;;4822281;29;20026;-52
2022/08/09 03:48:52;;;;;;;14.93;5.32;;;10.80;99.90;;;;;;4822270;29;20065;-53
2022/08/09 03:51:20;;;;;;;8.25;5.22;;;10.70;99.90;;;;;;4822303;29;20037;-53
2022/08/09 03:53:46;;;;;;;14.70;5.50;;;10.70;99.90;;;;;;4821785;29;20046;-54
2022/08/09 03:56:12;;;;;;;12.60;5.47;;;10.70;99.90;;;;;;4822249;29;20084;-53
2022/08/09 03:58:38;;;;;;;16.80;5.78;;;10.60;99.90;;;;;;4822340;29;20068;-50
2022/08/09 04:01:05;;;;;;;14.52;4.82;;;10.70;99.90;;;;;;4821886;29;20026;-51
2022/08/09 04:03:31;;;;;;;9.13;4.90;;;10.70;99.90;;;;;;4822078;29;20042;-52
2022/08/09 04:05:57;;;;;;;13.23;4.95;;;10.60;99.90;;;;;;4821743;29;20159;-50
2022/08/09 04:08:23;;;;;;;8.90;6.22;;;10.60;99.90;;;;;;4821882;29;20118;-51
2022/08/09 04:10:49;;;;;;;8.50;5.72;;;10.70;99.90;;;;;;4821887;29;20037;-53
2022/08/09 04:13:14;;;;;;;5.70;5.15;;;10.70;99.90;;;;;;4821736;29;20179;-51
2022/08/09 04:15:43;;;;;;;9.68;6.30;;;10.70;99.90;;;;;;4820670;29;20034;-51
2022/08/09 04:18:09;;;;;;;11.65;6.35;;;10.80;99.90;;;;;;4821392;29;20026;-52
2022/08/09 04:20:35;;;;;;;6.95;5.55;;;10.80;99.90;;;;;;4821862;29;20035;-52
2022/08/09 04:23:01;;;;;;;5.95;5.35;;;10.80;99.90;;;;;;4820253;29;20578;-54
2022/08/09 04:25:27;;;;;;;6.18;5.57;;;10.80;99.90;;;;;;4821807;29;20033;-52
2022/08/09 04:27:52;;;;;;;6.47;4.82;;;10.80;99.90;;;;;;4821566;29;20037;-51
2022/08/09 04:30:21;;;;;;;9.50;4.70;;;10.90;99.90;;;;;;4821761;29;20097;-51
2022/08/09 04:32:48;;;;;;;9.23;5.10;;;11.00;99.90;;;;;;4821726;29;20026;-51
2022/08/09 04:35:13;;;;;;;6.45;5.15;;;11.00;99.90;;;;;;4821570;29;20023;-52
2022/08/09 04:37:39;;;;;;;7.57;5.15;;;11.10;99.90;;;;;;4821450;29;20029;-54
2022/08/09 04:40:07;;;;;;;5.82;5.22;;;11.10;99.90;;;;;;4821449;29;20498;-52
2022/08/09 04:42:32;;;;;;;7.07;6.30;;;11.20;99.90;;;;;;4821558;29;20034;-51
2022/08/09 04:45:00;;;;;;;7.93;5.38;;;11.20;99.90;;;;;;4821277;29;20040;-51
2022/08/09 04:47:27;;;;;;;10.40;5.30;;;11.30;99.90;;;;;;4821715;29;20034;-52
2022/08/09 04:49:54;;;;;;;6.75;5.72;;;11.40;99.90;;;;;;4821345;29;20034;-51
2022/08/09 04:52:24;;;;;;;10.40;5.65;;;11.50;99.90;;;;;;4821313;29;20034;-51
2022/08/09 04:54:50;;;;;;;6.10;5.50;;;11.50;99.90;;;;;;4821381;29;20026;-52
2022/08/09 04:57:17;;;;;;;5.60;5.03;;;11.50;99.90;;;;;;4821494;29;20087;-52
2022/08/09 04:59:42;;;;;;;5.72;5.22;;;11.60;99.90;;;;;;4821390;29;20045;-52
2022/08/09 05:02:08;;;;;;;7.82;5.30;;;11.70;99.90;;;;;;4821353;29;20026;-51
2022/08/09 05:04:34;;;;;;;8.98;5.53;;;11.80;99.90;;;;;;4821294;29;20027;-52
2022/08/09 05:07:00;;;;;;;7.35;5.55;;;11.90;99.90;;;;;;4821073;29;20065;-55
2022/08/09 05:09:27;;;;;;;8.98;5.07;;;11.90;99.90;;;;;;4821203;29;20058;-51
2022/08/09 05:11:53;;;;;;;10.07;6.50;;;12.10;99.90;;;;;;4821088;29;20071;-53
2022/08/09 05:14:19;;;;;;;7.72;5.85;;;12.20;99.90;;;;;;4821021;29;20058;-55
2022/08/09 05:16:44;;;;;;;7.20;5.30;;;12.40;99.90;;;;;;4821632;29;20034;-52
2022/08/09 05:19:13;;;;;;;5.47;4.97;;;12.60;99.90;;;;;;4821046;29;20865;-52
2022/08/09 05:21:40;;;;;;;24.55;6.88;;;12.80;99.90;;;;;;4821182;29;20534;-51
2022/08/09 05:24:05;;;;;;;10.77;5.40;;;12.90;99.90;;;;;;4820695;29;20103;-50
2022/08/09 05:26:32;;;;;;;5.38;4.93;;;12.90;99.90;;;;;;4821094;29;20117;-52
2022/08/09 05:28:58;;;;;;;9.20;5.10;;;13.00;99.90;;;;;;4821777;29;20456;-52
2022/08/09 05:31:23;;;;;;;10.88;5.55;;;13.10;99.90;;;;;;4824665;29;20105;-51
2022/08/09 05:33:49;;;;;;;5.88;5.15;;;13.20;99.90;;;;;;4824282;29;20027;-51
2022/08/09 05:36:15;;;;;;;7.25;5.15;;;13.30;99.90;;;;;;4824494;29;20390;-53
2022/08/09 05:38:40;;;;;;;5.78;5.00;;;13.30;99.90;;;;;;4823999;29;20099;-52
2022/08/09 05:41:06;;;;;;;7.88;5.90;;;13.40;99.90;;;;;;4824104;29;20070;-51
2022/08/09 05:43:34;;;;;;;6.18;5.55;;;13.50;99.90;;;;;;4824152;29;20038;-53
2022/08/09 05:46:00;;;;;;;5.93;5.32;;;13.60;99.90;;;;;;4824037;29;20033;-53
2022/08/09 05:48:26;;;;;;;5.38;4.95;;;13.70;99.90;;;;;;4824060;29;20377;-51
2022/08/09 05:50:52;;;;;;;9.75;5.70;;;13.90;99.90;;;;;;4824050;29;20171;-52
2022/08/09 05:53:17;;;;;;;10.77;5.40;;;14.00;99.90;;;;;;4823707;29;20034;-51
2022/08/09 05:55:43;;;;;;;6.93;5.47;;;14.10;99.90;;;;;;4823959;29;20027;-51
2022/08/09 05:58:09;;;;;;;8.75;5.38;;;14.30;99.90;;;;;;4822638;29;20066;-51
2022/08/09 06:00:34;;;;;;;6.43;5.20;;;14.40;99.90;;;;;;4823954;29;20038;-53
2022/08/09 06:03:02;;;;;;;6.20;5.43;;;14.40;99.90;;;;;;4823756;29;20091;-52
2022/08/09 06:05:31;;;;;;;7.07;5.22;;;14.60;99.90;;;;;;4822368;29;20030;-51
2022/08/09 06:07:56;;;;;;;6.88;5.13;;;14.70;99.90;;;;;;4821991;29;20080;-52
2022/08/09 06:10:36;;;;;;;6.32;5.13;;;14.80;99.90;;;;;;4823796;29;20050;-52
2022/08/09 06:13:03;;;;;;;12.25;5.28;;;15.00;99.90;;;;;;4823567;29;20049;-51
2022/08/09 06:15:29;;;;;;;7.60;5.60;;;15.20;99.90;;;;;;4823682;29;20405;-53
2022/08/09 06:17:55;;;;;;;12.55;5.75;;;15.40;99.90;;;;;;4823546;29;20034;-50
2022/08/09 06:20:21;;;;;;;10.27;5.20;;;15.50;99.90;;;;;;4823515;29;20424;-51
2022/08/09 06:22:46;;;;;;;6.07;5.45;;;15.70;99.90;;;;;;4822209;29;20095;-52
2022/08/09 06:25:12;;;;;;;8.75;6.07;;;15.80;99.90;;;;;;4823409;29;20066;-52
2022/08/09 06:27:37;;;;;;;8.90;5.38;;;15.90;99.90;;;;;;4823568;29;20030;-52
2022/08/09 06:30:04;;;;;;;7.85;5.20;;;16.00;99.90;;;;;;4823224;29;20376;-52
2022/08/09 06:32:29;;;;;;;9.60;5.18;;;16.20;99.90;;;;;;4823357;29;20471;-52
2022/08/09 06:34:55;;;;;;;6.65;5.50;;;16.40;99.90;;;;;;4823422;29;20091;-54
2022/08/09 06:37:21;;;;;;;8.77;5.53;;;16.50;99.90;;;;;;4823127;29;20038;-53
2022/08/09 06:39:46;;;;;;;6.63;5.53;;;16.70;99.90;;;;;;4823224;29;20030;-52
2022/08/09 06:42:13;;;;;;;18.52;5.50;;;16.80;99.90;;;;;;4823098;29;20027;-52
2022/08/09 06:44:38;;;;;;;8.95;5.35;;;17.00;99.90;;;;;;4823147;29;20053;-51
2022/08/09 06:47:04;;;;;;;5.45;4.97;;;17.10;99.90;;;;;;4819289;29;20586;-55
2022/08/09 06:49:30;;;;;;;10.90;4.93;;;17.30;99.90;;;;;;4820308;29;20037;-55
2022/08/09 06:51:55;;;;;;;8.15;4.75;;;17.30;99.90;;;;;;4813276;29;20062;-53
2022/08/09 06:54:21;;;;;;;11.32;4.75;;;17.40;99.90;;;;;;4816612;29;20031;-51
2022/08/09 06:56:47;;;;;;;6.63;4.45;;;17.50;99.90;;;;;;4819390;29;20151;-53
2022/08/09 06:59:13;;;;;;;7.82;5.97;;;17.60;99.90;;;;;;4808512;29;20038;-52
2022/08/09 07:01:38;;;;;;;6.22;4.90;;;17.70;99.90;;;;;;4813635;29;20065;-51
2022/08/09 07:04:04;;;;;;;7.38;4.57;;;17.90;99.90;;;;;;4794861;29;20038;-52
2022/08/09 07:06:29;;;;;;;5.35;4.53;;;17.90;99.90;;;;;;4795503;29;20091;-53
2022/08/09 07:08:55;;;;;;;11.18;5.00;;;18.10;99.90;;;;;;4793549;29;20034;-52
2022/08/09 07:11:21;;;;;;;12.15;4.60;;;18.10;99.90;;;;;;4793773;29;21804;-54
2022/08/09 07:13:47;;;;;;;7.30;4.90;;;18.30;99.90;;;;;;4793639;29;20070;-51
2022/08/09 07:16:12;;;;;;;10.82;5.10;;;18.30;99.90;;;;;;4793645;29;20546;-52
2022/08/09 07:18:38;;;;;;;8.05;4.47;;;18.30;99.90;;;;;;4794446;29;20059;-52
2022/08/09 07:21:04;;;;;;;6.15;4.03;;;18.40;99.90;;;;;;4796467;29;20121;-54
2022/08/09 07:23:29;;;;;;;5.30;3.58;;;18.40;99.90;;;;;;4798082;29;20079;-54
2022/08/09 07:25:55;;;;;;;5.50;4.15;;;18.40;99.90;;;;;;4797337;29;20053;-51
2022/08/09 07:28:21;;;;;;;7.95;4.38;;;18.50;99.90;;;;;;4798006;29;20090;-51
2022/08/09 07:30:46;;;;;;;17.13;4.38;;;18.50;99.90;;;;;;4796944;29;20154;-55
2022/08/09 07:33:12;;;;;;;6.18;4.53;;;18.50;99.90;;;;;;4797908;29;20035;-51
2022/08/09 07:35:38;;;;;;;16.00;4.43;;;18.60;99.90;;;;;;4799448;29;20119;-53
2022/08/09 07:38:03;;;;;;;12.15;5.25;;;18.80;99.90;;;;;;4796044;29;20054;-52
2022/08/09 07:40:29;;;;;;;16.42;4.93;;;18.80;99.90;;;;;;4796932;29;20035;-51
2022/08/09 07:42:59;;;;;;;11.43;5.55;;;19.00;99.90;;;;;;4796085;29;20073;-51
2022/08/09 07:45:29;;;;;;;7.65;5.05;;;19.20;99.90;;;;;;4797014;29;20377;-51
2022/08/09 07:47:58;;;;;;;10.02;5.85;;;19.40;99.90;;;;;;4794146;29;20035;-52
2022/08/09 07:50:26;;;;;;;13.60;7.55;;;19.40;99.90;;;;;;4794266;29;20077;-52
2022/08/09 07:52:52;;;;;;;7.70;6.28;;;19.50;99.90;;;;;;4792701;29;20058;-53
2022/08/09 07:55:17;;;;;;;6.85;6.00;;;19.60;99.90;;;;;;4794761;29;20073;-52
2022/08/09 07:57:46;;;;;;;10.88;5.38;;;19.70;99.90;;;;;;4794634;29;20051;-52
2022/08/09 08:00:12;;;;;;;7.00;5.15;;;19.70;99.90;;;;;;4807383;29;20034;-52
2022/08/09 08:02:38;;;;;;;12.75;5.10;;;19.80;99.90;;;;;;4821732;29;20034;-51
2022/08/09 08:05:04;;;;;;;6.75;5.32;;;19.80;99.90;;;;;;4813876;29;20055;-52
2022/08/09 08:07:29;;;;;;;6.80;4.68;;;19.80;99.90;;;;;;4812017;29;20413;-52
2022/08/09 08:09:55;;;;;;;5.43;4.25;;;19.80;99.90;;;;;;4813091;29;20041;-54
2022/08/09 08:12:21;;;;;;;9.02;4.25;;;20.00;99.90;;;;;;4813912;29;20026;-53
2022/08/09 08:14:47;;;;;;;3.80;3.25;;;20.00;99.90;;;;;;4822299;29;20059;-55
2022/08/09 08:17:13;;;;;;;4.63;3.65;;;19.90;99.90;;;;;;4822209;29;20034;-53
2022/08/09 08:19:38;;;;;;;6.47;3.78;;;20.00;99.90;;;;;;4808944;29;20039;-52
2022/08/09 08:22:04;;;;;;;6.10;3.90;;;20.10;99.90;;;;;;4804761;29;20669;-51
2022/08/09 08:24:30;;;;;;;6.72;3.80;;;20.30;99.90;;;;;;4804684;29;20521;-53
2022/08/09 08:26:56;;;;;;;12.10;4.68;;;20.30;99.90;;;;;;4810329;29;20122;-53
2022/08/09 08:29:23;;;;;;;7.65;4.18;;;20.50;99.90;;;;;;4810360;29;20041;-51
2022/08/09 08:31:48;;;;;;;5.32;4.30;;;20.70;99.90;;;;;;4817317;29;20046;-51
2022/08/09 08:34:14;;;;;;;9.18;3.95;;;20.70;99.90;;;;;;4806301;29;20035;-53
2022/08/09 08:40:03;;;;;;;13.55;3.90;;;20.80;99.90;;;;;;4819073;29;20175;-54
2022/08/09 08:42:31;;;;;;;8.50;3.90;;;21.00;99.90;;;;;;4821568;29;20050;-51
2022/08/09 08:44:58;;;;;;;5.20;3.45;;;21.00;99.80;;;;;;4809173;29;20041;-51
2022/08/09 08:47:25;;;;;;;12.27;4.13;;;21.20;99.90;;;;;;4804497;29;20029;-54
2022/08/09 08:49:53;;;;;;;5.13;3.78;;;21.40;99.90;;;;;;4806985;29;20030;-54
2022/08/09 08:52:27;;;;;;;7.03;3.33;;;21.40;99.90;;;;;;4810984;29;20043;-51
2022/08/09 08:54:58;;;;;;;4.30;3.10;;;21.50;99.90;;;;;;4812963;29;20491;-55
2022/08/09 08:57:25;;;;;;;6.20;3.92;;;21.80;99.90;;;;;;4811424;29;20035;-51
2022/08/09 08:59:52;;;;;;;15.18;4.43;;;21.80;99.20;;;;;;4814514;29;20033;-51
2022/08/09 09:02:28;;;;;;;12.38;3.88;;;21.90;99.80;;;;;;4811691;29;20035;-52
2022/08/09 09:04:59;;;;;;;17.20;3.38;;;22.10;98.60;;;;;;4814767;29;20066;-53
2022/08/09 09:07:25;;;;;;;6.63;3.55;;;22.30;97.70;;;;;;4815835;29;20041;-51
2022/08/09 09:09:53;;;;;;;7.00;3.58;;;22.30;97.60;;;;;;4816049;29;20034;-53
2022/08/09 09:12:25;;;;;;;6.63;3.20;;;22.30;97.60;;;;;;4816856;29;20052;-53
2022/08/09 09:14:51;;;;;;;5.63;4.07;;;22.50;97.40;;;;;;4815704;29;20496;-54
2022/08/09 09:17:17;;;;;;;7.13;2.67;;;22.70;96.80;;;;;;4815159;29;20458;-52
2022/08/09 09:19:43;;;;;;;8.50;2.97;;;22.70;96.10;;;;;;4816875;29;20110;-55
2022/08/09 09:22:15;;;;;;;13.65;3.33;;;22.70;95.70;;;;;;4818780;29;20049;-51
2022/08/09 09:24:44;;;;;;;6.75;2.90;;;22.80;95.70;;;;;;4825620;29;20109;-54
2022/08/09 09:27:19;;;;;;;5.47;2.70;;;23.20;95.90;;;;;;4824105;29;20436;-55
2022/08/09 09:29:45;;;;;;;6.53;2.65;;;23.20;95.00;;;;;;4815994;29;20031;-53
2022/08/09 09:32:11;;;;;;;4.47;2.60;;;23.40;94.20;;;;;;4814171;29;20042;-53
2022/08/09 09:34:38;;;;;;;2.67;2.40;;;23.50;94.20;;;;;;4806142;29;20560;-51
2022/08/09 09:37:05;;;;;;;7.40;1.92;;;23.40;93.50;;;;;;4805022;29;20035;-53
2022/08/09 09:39:31;;;;;;;3.13;2.22;;;23.50;92.80;;;;;;4806240;29;20110;-53
2022/08/09 09:41:58;;;;;;;8.55;2.33;;;23.80;91.70;;;;;;4806458;29;20042;-52
2022/08/09 09:44:28;;;;;;;3.63;1.80;;;23.80;91.50;;;;;;4804686;29;20050;-52
2022/08/09 09:47:06;;;;;;;11.93;2.88;;;23.90;91.10;;;;;;4815284;29;20038;-51
2022/08/09 09:49:32;;;;;;;5.45;1.90;;;23.90;90.10;;;;;;4822567;29;20027;-52
2022/08/09 09:52:07;;;;;;;3.95;1.70;;;24.00;88.80;;;;;;4822212;29;20060;-53
2022/08/09 09:54:39;;;;;;;9.13;2.45;;;24.10;87.40;;;;;;4822399;29;20518;-51
2022/08/09 09:57:20;;;;;;;6.22;1.45;;;24.10;91.10;;;;;;4822270;29;20065;-52
2022/08/09 09:59:48;;;;;;;2.95;1.83;;;24.00;85.20;;;;;;4823119;29;20079;-53
2022/08/09 10:02:17;;;;;;;8.30;1.85;;;23.90;86.30;;;;;;4822394;29;20504;-51
2022/08/09 10:04:44;;;;;;;7.22;2.08;;;24.20;84.00;;;;;;4823711;29;20417;-51
2022/08/09 10:07:24;;;;;;;6.72;1.73;;;24.30;82.30;;;;;;4823558;29;20129;-52
2022/08/09 10:09:54;;;;;;;4.10;1.77;;;24.40;82.30;;;;;;4823736;29;20579;-52
2022/08/09 10:12:28;;;;;;;2.28;1.30;;;24.70;82.70;;;;;;4823440;29;20022;-51
2022/08/09 10:15:15;;;;;;;3.50;1.30;;;24.90;80.80;;;;;;4822922;29;20046;-55
2022/08/09 10:17:50;;;;;;;10.13;2.20;;;24.90;80.30;;;;;;4822375;29;20111;-51
2022/08/09 10:20:20;;;;;;;2.55;1.45;;;25.00;78.70;;;;;;4822511;29;20061;-53
2022/08/09 10:22:48;;;;;;;3.92;1.98;;;24.80;78.70;;;;;;4822382;29;20689;-52
2022/08/09 10:25:14;;;;;;;3.38;1.50;;;24.80;76.40;;;;;;4823240;29;20409;-52
2022/08/09 10:27:41;;;;;;;3.47;1.80;;;25.20;80.60;;;;;;4823195;29;20030;-54
2022/08/09 10:30:08;;;;;;;4.35;1.63;;;25.40;77.60;;;;;;4823124;29;20014;-52
2022/08/09 10:32:34;;;;;;;3.17;1.63;;;25.20;73.40;;;;;;4823417;29;20031;-51
2022/08/09 10:35:01;;;;;;;5.05;1.55;;;25.40;75.60;;;;;;4821917;29;20031;-52
2022/08/09 10:37:27;;;;;;;4.30;2.15;;;25.50;77.60;;;;;;4823343;29;20421;-52
2022/08/09 10:39:53;;;;;;;2.30;1.55;;;25.60;77.50;;;;;;4817262;29;20488;-54
2022/08/09 10:42:21;;;;;;;6.18;1.40;;;25.70;79.20;;;;;;4820605;29;20099;-52
2022/08/09 10:44:58;;;;;;;5.22;1.63;;;26.10;75.90;;;;;;4824420;29;20038;-54
2022/08/09 10:47:55;;;;;;;10.75;1.52;;;25.80;72.50;;;;;;4817253;29;20034;-52
2022/08/09 10:51:05;;;;;;;3.80;1.63;;;25.80;73.10;;;;;;4810945;29;20510;-53
2022/08/09 10:53:42;;;;;;;16.80;2.53;;;25.80;72.10;;;;;;4806900;29;20042;-54
2022/08/09 10:56:23;;;;;;;9.13;2.95;;;25.80;71.90;;;;;;4820980;29;20042;-52
2022/08/09 10:58:56;;;;;;;29.05;4.88;;;25.80;71.00;;;;;;4822742;29;20022;-51
2022/08/09 11:01:30;;;;;;;7.28;1.55;;;25.90;72.70;;;;;;4823132;29;20018;-52
2022/08/09 11:04:08;;;;;;;12.48;2.05;;;25.70;70.60;;;;;;4822100;29;20018;-52
2022/08/09 11:06:36;;;;;;;3.92;1.63;;;25.90;71.60;;;;;;4821776;29;20034;-54
2022/08/09 11:09:07;;;;;;;7.43;1.80;;;26.10;70.10;;;;;;4822628;29;20054;-52
2022/08/09 11:11:58;;;;;;;2.15;1.20;;;26.10;68.70;;;;;;4822536;29;20049;-53
2022/08/09 11:14:36;;;;;;;2.35;1.42;;;26.00;69.20;;;;;;4822793;29;20046;-52
2022/08/09 11:17:25;;;;;;;8.73;1.63;;;26.10;69.30;;;;;;4822628;29;20034;-51
2022/08/09 11:19:55;;;;;;;5.35;1.48;;;26.40;66.70;;;;;;4822673;29;20465;-55
2022/08/09 11:25:20;;;;;;;5.07;1.65;;;26.40;67.00;;;;;;4822235;29;20414;-54
2022/08/09 11:27:49;;;;;;;4.90;1.80;;;26.50;67.60;;;;;;4821801;29;20390;-53
2022/08/09 11:30:21;;;;;;;8.32;1.60;;;26.50;68.20;;;;;;4822211;29;20130;-51
2022/08/09 11:32:53;;;;;;;33.35;7.88;;;26.80;65.70;;;;;;4822482;29;20064;-53
2022/08/09 11:35:27;;;;;;;9.35;1.75;;;26.90;66.00;;;;;;4821092;29;20545;-52
2022/08/09 11:37:56;;;;;;;10.20;1.85;;;27.10;65.80;;;;;;4822492;29;20038;-56
2022/08/09 11:40:30;;;;;;;6.50;1.70;;;27.10;63.40;;;;;;4822500;29;20023;-52
2022/08/09 11:42:59;;;;;;;1.65;1.50;;;27.10;63.90;;;;;;4822333;29;20395;-51
2022/08/09 11:45:27;;;;;;;3.70;1.05;;;27.20;61.50;;;;;;4822266;29;20049;-53
2022/08/09 11:47:59;;;;;;;3.58;1.20;;;27.10;61.90;;;;;;4822126;29;20030;-55
2022/08/09 11:50:26;;;;;;;4.60;1.20;;;27.60;63.10;;;;;;4822257;29;20053;-53
2022/08/09 11:52:58;;;;;;;7.88;1.33;;;28.30;64.10;;;;;;4821930;29;20058;-53
2022/08/09 11:55:36;;;;;;;3.15;1.27;;;28.70;59.40;;;;;;4822346;29;20038;-51
2022/08/09 11:58:27;;;;;;;3.83;1.20;;;29.20;56.40;;;;;;4822066;29;20041;-52
2022/08/09 12:01:07;;;;;;;3.05;1.20;;;30.40;58.20;;;;;;4821885;29;20105;-52
2022/08/09 12:03:33;;;;;;;4.35;1.00;;;30.70;55.20;;;;;;4822102;29;20669;-51
2022/08/09 12:06:00;;;;;;;2.17;1.45;;;31.10;54.70;;;;;;4821713;29;20037;-55
2022/08/09 12:08:27;;;;;;;2.45;1.20;;;31.20;53.80;;;;;;4821882;29;20031;-52
2022/08/09 12:10:55;;;;;;;4.53;1.73;;;31.60;53.60;;;;;;4820767;29;20027;-54
2022/08/09 12:13:32;;;;;;;3.47;1.30;;;31.60;51.70;;;;;;4821793;29;20051;-55
2022/08/09 12:16:10;;;;;;;7.75;1.50;;;32.10;51.10;;;;;;4822230;29;20039;-53
2022/08/09 12:18:38;;;;;;;6.10;0.98;;;32.20;49.70;;;;;;4822010;29;20030;-56
2022/08/09 12:21:07;;;;;;;3.78;1.20;;;32.00;48.90;;;;;;4820559;29;20034;-55
2022/08/09 12:23:40;;;;;;;3.25;1.25;;;32.80;48.60;;;;;;4821851;29;20030;-56
2022/08/09 12:26:06;;;;;;;6.35;1.15;;;33.10;48.50;;;;;;4821839;29;20502;-56
2022/08/09 12:28:33;;;;;;;4.70;1.10;;;32.90;46.10;;;;;;4821761;29;20026;-54
2022/08/09 12:30:59;;;;;;;9.18;1.20;;;32.90;45.50;;;;;;4821935;29;20034;-55
2022/08/09 12:33:25;;;;;;;6.00;1.27;;;32.60;47.30;;;;;;4821731;29;20105;-55
2022/08/09 12:36:03;;;;;;;6.25;0.90;;;33.00;47.20;;;;;;4821756;29;20117;-56
2022/08/09 12:38:30;;;;;;;8.90;1.52;;;33.10;44.20;;;;;;4821369;29;20042;-55
2022/08/09 12:40:57;;;;;;;14.07;1.60;;;33.20;46.50;;;;;;4821439;29;20029;-55
2022/08/09 12:43:26;;;;;;;13.02;1.27;;;32.90;46.00;;;;;;4821558;29;20041;-55
2022/08/09 12:45:57;;;;;;;2.92;0.82;;;33.10;46.30;;;;;;4821974;29;20438;-53
2022/08/09 12:48:23;;;;;;;2.20;1.08;;;33.20;45.60;;;;;;4822534;29;20062;-54
2022/08/09 12:50:50;;;;;;;10.43;1.40;;;33.40;44.90;;;;;;4822390;29;20072;-52
2022/08/09 12:53:27;;;;;;;10.48;1.50;;;32.90;42.60;;;;;;4822035;29;20454;-57
2022/08/09 12:56:10;;;;;;;4.40;1.45;;;33.10;46.20;;;;;;4822363;29;20034;-56
2022/08/09 12:58:37;;;;;;;5.35;1.23;;;33.70;44.00;;;;;;4821726;29;20038;-55
2022/08/09 13:01:17;;;;;;;3.75;0.98;;;33.10;43.90;;;;;;4821247;29;20031;-57